Time;durP1;ratioP1;P1;durP2;ratioP2;P2;SDS_P1;SDS_P2;PMS_P1;PMS_P2;Temp;Humidity;BMP_temperature;BMP_pressure;BME280_temperature;BME280_humidity;BME280_pressure;Samples;Min_cycle;Max_cycle;Signal;HPM_P1;HPM_P2
2023/07/06 00:01:22;;;;;;;2.40;1.63;;;16.50;88.90;;;;;;4921407;29;20579;-61
2023/07/06 00:03:49;;;;;;;3.53;2.08;;;16.40;89.50;;;;;;4923948;29;20921;-61
2023/07/06 00:06:16;;;;;;;4.03;1.90;;;16.40;89.50;;;;;;4926727;29;20119;-61
2023/07/06 00:08:42;;;;;;;5.45;1.85;;;16.40;89.50;;;;;;4924383;29;20118;-61
2023/07/06 00:11:09;;;;;;;4.05;2.05;;;16.30;89.70;;;;;;4924885;29;20880;-61
2023/07/06 00:13:36;;;;;;;2.92;1.73;;;16.30;90.00;;;;;;4921177;29;20036;-61
2023/07/06 00:16:02;;;;;;;3.47;1.85;;;16.30;90.20;;;;;;4922430;29;20419;-61
2023/07/06 00:18:29;;;;;;;3.78;1.92;;;16.20;90.30;;;;;;4918931;29;20040;-61
2023/07/06 00:20:57;;;;;;;5.45;2.10;;;16.20;90.30;;;;;;4923351;29;20134;-61
2023/07/06 00:23:23;;;;;;;4.00;1.90;;;16.30;90.50;;;;;;4927036;29;20035;-61
2023/07/06 00:25:50;;;;;;;4.07;1.90;;;16.30;90.60;;;;;;4925075;29;20047;-61
2023/07/06 00:28:24;;;;;;;3.60;2.03;;;16.30;90.50;;;;;;4924854;29;20463;-61
2023/07/06 00:33:18;;;;;;;4.65;2.15;;;16.20;90.40;;;;;;4922008;29;20046;-61
2023/07/06 00:35:45;;;;;;;4.18;2.15;;;16.20;90.50;;;;;;4925101;29;20638;-61
2023/07/06 00:38:29;;;;;;;2.88;2.00;;;16.20;90.50;;;;;;4927316;29;20142;-61
2023/07/06 00:40:57;;;;;;;3.58;2.00;;;16.10;90.50;;;;;;4925855;29;20099;-61
2023/07/06 00:43:49;;;;;;;3.53;2.35;;;16.10;90.50;;;;;;4925121;29;20039;-61
2023/07/06 00:46:15;;;;;;;7.57;2.13;;;16.10;90.70;;;;;;4923391;29;20094;-61
2023/07/06 00:48:44;;;;;;;2.60;2.00;;;16.10;90.70;;;;;;4907820;29;20036;-61
2023/07/06 00:51:16;;;;;;;6.15;2.05;;;16.10;90.90;;;;;;4921850;29;20046;-61
2023/07/06 00:53:48;;;;;;;3.63;1.95;;;16.00;91.00;;;;;;4919598;29;20044;-60
2023/07/06 00:56:20;;;;;;;5.30;2.22;;;16.00;91.10;;;;;;4918440;29;20504;-61
2023/07/06 00:58:48;;;;;;;3.78;2.10;;;16.00;91.30;;;;;;4925604;29;20604;-61
2023/07/06 01:01:21;;;;;;;4.20;1.98;;;15.90;91.30;;;;;;4925393;29;20495;-61
2023/07/06 01:03:52;;;;;;;2.95;2.00;;;15.90;91.40;;;;;;4908787;29;20039;-61
2023/07/06 01:06:27;;;;;;;3.55;1.70;;;15.90;91.40;;;;;;4925259;29;20055;-60
2023/07/06 01:08:54;;;;;;;3.30;1.67;;;15.90;91.50;;;;;;4907960;29;20074;-61
2023/07/06 01:11:21;;;;;;;3.67;2.10;;;15.90;91.50;;;;;;4919148;29;20039;-61
2023/07/06 01:13:52;;;;;;;2.95;1.80;;;15.80;91.70;;;;;;4917101;29;20043;-61
2023/07/06 01:16:42;;;;;;;5.75;2.50;;;15.80;91.90;;;;;;4908717;29;20040;-61
2023/07/06 01:19:53;;;;;;;5.05;2.90;;;15.80;91.90;;;;;;4920859;29;20030;-61
2023/07/06 01:22:38;;;;;;;6.22;3.05;;;15.80;91.70;;;;;;4923485;29;20055;-61
2023/07/06 01:25:28;;;;;;;5.70;3.20;;;15.70;91.60;;;;;;4922190;29;20046;-61
2023/07/06 01:28:08;;;;;;;6.93;3.40;;;15.70;91.80;;;;;;4919537;29;20036;-61
2023/07/06 01:31:11;;;;;;;5.75;3.17;;;15.60;92.20;;;;;;4906272;29;20043;-61
2023/07/06 01:33:47;;;;;;;4.07;2.30;;;15.60;92.70;;;;;;4903030;29;20058;-61
2023/07/06 01:36:34;;;;;;;4.68;2.90;;;15.70;92.90;;;;;;4922895;29;20067;-61
2023/07/06 01:39:13;;;;;;;5.43;2.35;;;15.70;93.10;;;;;;4924611;29;20040;-61
2023/07/06 01:41:40;;;;;;;4.10;2.42;;;15.70;93.10;;;;;;4919924;29;20123;-61
2023/07/06 01:44:16;;;;;;;6.47;2.22;;;15.80;92.70;;;;;;4920740;29;20429;-61
2023/07/06 01:46:51;;;;;;;5.30;2.40;;;15.80;92.20;;;;;;4915882;29;20389;-61
2023/07/06 01:49:18;;;;;;;6.73;2.20;;;15.80;92.10;;;;;;4919510;29;20046;-61
2023/07/06 01:51:58;;;;;;;5.72;1.85;;;15.80;92.20;;;;;;4907511;29;20818;-61
2023/07/06 01:55:11;;;;;;;3.30;2.00;;;15.70;92.30;;;;;;4907343;29;20542;-61
2023/07/06 01:57:52;;;;;;;3.63;2.20;;;15.70;92.50;;;;;;4920450;29;20031;-61
2023/07/06 02:00:19;;;;;;;3.78;2.47;;;15.70;92.80;;;;;;4906098;29;20571;-61
2023/07/06 02:02:51;;;;;;;4.32;2.20;;;15.70;92.80;;;;;;4918255;29;20071;-61
2023/07/06 02:05:19;;;;;;;6.57;2.33;;;15.60;92.70;;;;;;4918974;29;20032;-61
2023/07/06 02:07:45;;;;;;;4.00;2.08;;;15.60;92.60;;;;;;4918598;29;20608;-61
2023/07/06 02:10:15;;;;;;;3.38;1.80;;;15.60;92.90;;;;;;4909530;29;20133;-61
2023/07/06 02:12:47;;;;;;;2.05;1.85;;;15.60;93.30;;;;;;4920757;29;20036;-61
2023/07/06 02:15:22;;;;;;;4.65;2.00;;;15.50;93.40;;;;;;4905537;29;20042;-61
2023/07/06 02:17:55;;;;;;;3.05;1.73;;;15.60;93.70;;;;;;4918303;29;20776;-61
2023/07/06 02:20:21;;;;;;;4.20;2.25;;;15.60;93.70;;;;;;4918207;29;20058;-61
2023/07/06 02:22:46;;;;;;;3.40;2.13;;;15.60;93.80;;;;;;4917262;29;20035;-61
2023/07/06 02:25:13;;;;;;;2.78;2.28;;;15.60;93.90;;;;;;4908472;29;20904;-60
2023/07/06 02:27:39;;;;;;;3.50;1.90;;;15.70;93.80;;;;;;4923583;29;20063;-61
2023/07/06 02:30:06;;;;;;;4.70;1.98;;;15.60;93.80;;;;;;4923969;29;20503;-61
2023/07/06 02:32:32;;;;;;;4.82;2.28;;;15.70;93.90;;;;;;4921876;29;20106;-61
2023/07/06 02:34:59;;;;;;;3.95;2.00;;;15.60;93.70;;;;;;4908525;29;20039;-61
2023/07/06 02:37:24;;;;;;;3.28;2.20;;;15.60;93.90;;;;;;4907831;29;20044;-61
2023/07/06 02:39:50;;;;;;;3.28;2.13;;;15.60;94.00;;;;;;4917825;29;20043;-61
2023/07/06 02:42:17;;;;;;;5.10;1.85;;;15.60;94.10;;;;;;4918467;29;20568;-61
2023/07/06 02:44:43;;;;;;;5.47;2.05;;;15.50;94.20;;;;;;4924410;29;20675;-61
2023/07/06 02:47:10;;;;;;;3.22;2.20;;;15.50;94.30;;;;;;4923858;29;20035;-61
2023/07/06 02:49:37;;;;;;;3.10;1.98;;;15.60;94.40;;;;;;4907156;29;20602;-61
2023/07/06 02:52:04;;;;;;;3.58;2.33;;;15.60;94.40;;;;;;4921818;29;20039;-61
2023/07/06 02:54:32;;;;;;;2.47;2.10;;;15.60;94.40;;;;;;4919354;29;20035;-61
2023/07/06 02:57:00;;;;;;;3.88;1.85;;;15.70;94.20;;;;;;4919000;29;20035;-61
2023/07/06 02:59:30;;;;;;;4.10;2.00;;;15.60;93.90;;;;;;4915907;29;20059;-61
2023/07/06 03:01:58;;;;;;;3.53;2.00;;;15.60;94.00;;;;;;4922465;29;20071;-61
2023/07/06 03:04:25;;;;;;;3.70;2.10;;;15.60;94.20;;;;;;4903909;29;20043;-61
2023/07/06 03:06:55;;;;;;;4.50;2.30;;;15.60;94.30;;;;;;4922500;29;20055;-61
2023/07/06 03:09:22;;;;;;;2.83;2.10;;;15.50;94.50;;;;;;4920980;29;20123;-61
2023/07/06 03:11:49;;;;;;;3.45;2.20;;;15.50;94.50;;;;;;4924332;29;20514;-61
2023/07/06 03:14:15;;;;;;;3.33;2.20;;;15.50;94.70;;;;;;4922625;29;20038;-61
2023/07/06 03:16:42;;;;;;;4.53;2.20;;;15.40;94.80;;;;;;4909483;29;20044;-61
2023/07/06 03:19:09;;;;;;;2.78;1.88;;;15.40;94.90;;;;;;4912408;29;20120;-61
2023/07/06 03:21:38;;;;;;;3.47;2.20;;;15.40;95.00;;;;;;4927497;29;20031;-61
2023/07/06 03:24:06;;;;;;;4.57;2.30;;;15.40;94.80;;;;;;4907070;29;20669;-61
2023/07/06 03:26:34;;;;;;;4.47;2.35;;;15.40;94.60;;;;;;4922896;29;20134;-61
2023/07/06 03:29:07;;;;;;;3.58;2.45;;;15.40;94.60;;;;;;4924019;29;20484;-61
2023/07/06 03:31:33;;;;;;;2.78;2.15;;;15.40;94.90;;;;;;4920971;29;20988;-61
2023/07/06 03:34:00;;;;;;;2.97;2.33;;;15.40;95.20;;;;;;4921507;29;20191;-61
2023/07/06 03:36:26;;;;;;;2.75;1.80;;;15.30;95.40;;;;;;4925001;29;20039;-61
2023/07/06 03:38:52;;;;;;;3.42;2.08;;;15.30;95.60;;;;;;4925497;29;20062;-61
2023/07/06 03:41:18;;;;;;;3.33;2.28;;;15.30;95.80;;;;;;4926864;29;20120;-61
2023/07/06 03:43:45;;;;;;;3.80;1.95;;;15.30;96.00;;;;;;4923456;29;20909;-61
2023/07/06 03:46:12;;;;;;;4.22;2.28;;;15.30;96.20;;;;;;4924352;29;20114;-61
2023/07/06 03:48:43;;;;;;;4.28;2.30;;;15.30;96.30;;;;;;4920578;29;20036;-61
2023/07/06 03:51:10;;;;;;;2.40;2.10;;;15.30;96.40;;;;;;4921530;29;20063;-61
2023/07/06 03:53:36;;;;;;;3.03;2.20;;;15.40;96.50;;;;;;4921053;29;20047;-61
2023/07/06 03:56:03;;;;;;;2.80;2.08;;;15.40;96.50;;;;;;4927357;29;20039;-61
2023/07/06 03:58:29;;;;;;;4.45;2.45;;;15.40;96.50;;;;;;4926667;29;20036;-61
2023/07/06 04:00:58;;;;;;;3.42;2.00;;;15.40;96.70;;;;;;4924551;29;20032;-63
2023/07/06 04:03:26;;;;;;;6.25;2.40;;;15.50;96.40;;;;;;4923861;29;20032;-61
2023/07/06 04:05:53;;;;;;;4.68;2.20;;;15.50;96.50;;;;;;4921665;29;20048;-61
2023/07/06 04:08:21;;;;;;;3.17;1.95;;;15.50;96.60;;;;;;4921351;29;20036;-61
2023/07/06 04:10:48;;;;;;;2.95;2.00;;;15.50;96.70;;;;;;4918900;29;20036;-61
2023/07/06 04:13:14;;;;;;;5.20;2.40;;;15.50;96.80;;;;;;4927550;29;20039;-61
2023/07/06 04:15:46;;;;;;;5.13;2.40;;;15.50;96.80;;;;;;4925396;29;20047;-61
2023/07/06 04:18:15;;;;;;;2.92;1.77;;;15.50;96.70;;;;;;4925462;29;20540;-61
2023/07/06 04:20:41;;;;;;;3.60;2.47;;;15.60;96.90;;;;;;4921566;29;20607;-61
2023/07/06 04:23:09;;;;;;;3.25;2.00;;;15.60;96.90;;;;;;4922993;29;20032;-61
2023/07/06 04:25:36;;;;;;;2.15;1.88;;;15.60;97.00;;;;;;4919011;29;20036;-61
2023/07/06 04:28:10;;;;;;;3.22;2.00;;;15.60;96.90;;;;;;4920896;29;20031;-61
2023/07/06 04:30:39;;;;;;;4.03;1.90;;;15.60;97.00;;;;;;4920022;29;20039;-61
2023/07/06 04:33:06;;;;;;;4.28;2.35;;;15.60;97.00;;;;;;4926076;29;20104;-61
2023/07/06 04:35:32;;;;;;;6.10;2.33;;;15.70;97.10;;;;;;4923981;29;20134;-61
2023/07/06 04:38:02;;;;;;;3.05;2.20;;;15.70;97.20;;;;;;4923412;29;20095;-61
2023/07/06 04:40:28;;;;;;;3.50;2.25;;;15.70;97.30;;;;;;4921127;29;20099;-61
2023/07/06 04:42:55;;;;;;;2.42;2.03;;;15.70;97.40;;;;;;4920350;29;20040;-61
2023/07/06 04:45:24;;;;;;;2.75;2.08;;;15.70;97.60;;;;;;4919469;29;20035;-61
2023/07/06 04:47:51;;;;;;;3.25;2.10;;;15.80;97.80;;;;;;4910188;29;20032;-61
2023/07/06 04:50:22;;;;;;;3.25;2.05;;;15.80;97.90;;;;;;4926706;29;20039;-61
2023/07/06 04:52:55;;;;;;;3.47;2.10;;;15.90;98.00;;;;;;4923428;29;20036;-61
2023/07/06 04:55:23;;;;;;;3.50;2.15;;;15.90;98.20;;;;;;4922483;29;20043;-61
2023/07/06 04:57:51;;;;;;;3.65;1.80;;;15.90;98.20;;;;;;4920902;29;20120;-61
2023/07/06 05:00:24;;;;;;;3.95;2.17;;;15.90;98.40;;;;;;4921273;29;20487;-61
2023/07/06 05:02:54;;;;;;;2.65;1.75;;;16.00;98.60;;;;;;4918429;29;20112;-61
2023/07/06 05:05:20;;;;;;;2.17;1.92;;;16.10;98.60;;;;;;4923873;29;20039;-61
2023/07/06 05:07:46;;;;;;;3.10;2.20;;;16.20;98.70;;;;;;4925404;29;20048;-61
2023/07/06 05:10:14;;;;;;;2.45;1.98;;;16.20;98.70;;;;;;4924977;29;20035;-61
2023/07/06 05:12:40;;;;;;;4.35;1.95;;;16.20;98.70;;;;;;4923770;29;20036;-61
2023/07/06 05:15:07;;;;;;;2.90;1.90;;;16.30;98.90;;;;;;4922980;29;20035;-61
2023/07/06 05:17:33;;;;;;;2.97;1.90;;;16.30;98.80;;;;;;4919063;29;20043;-61
2023/07/06 05:19:59;;;;;;;5.00;1.85;;;16.40;98.70;;;;;;4919928;29;20035;-61
2023/07/06 05:22:25;;;;;;;3.55;2.03;;;16.50;98.70;;;;;;4919717;29;20040;-61
2023/07/06 05:24:52;;;;;;;2.05;1.70;;;16.60;98.50;;;;;;4925372;29;20028;-61
2023/07/06 05:27:19;;;;;;;3.03;1.77;;;16.70;98.70;;;;;;4925313;29;20035;-61
2023/07/06 05:29:45;;;;;;;2.00;1.65;;;17.00;98.60;;;;;;4922088;29;20032;-61
2023/07/06 05:32:10;;;;;;;2.38;1.63;;;17.40;98.10;;;;;;4921655;29;20091;-61
2023/07/06 05:34:36;;;;;;;2.83;1.70;;;17.70;97.10;;;;;;4918933;29;20048;-61
2023/07/06 05:37:03;;;;;;;2.80;1.95;;;17.90;96.50;;;;;;4923116;29;20031;-61
2023/07/06 05:39:29;;;;;;;2.88;1.83;;;17.90;95.80;;;;;;4919342;29;20042;-61
2023/07/06 05:41:55;;;;;;;2.90;1.90;;;17.90;95.50;;;;;;4925718;29;20046;-61
2023/07/06 05:44:21;;;;;;;5.68;1.70;;;18.00;95.10;;;;;;4924914;29;20539;-61
2023/07/06 05:46:47;;;;;;;2.55;1.70;;;18.00;95.00;;;;;;4922204;29;20147;-61
2023/07/06 05:49:13;;;;;;;2.83;1.70;;;18.00;95.10;;;;;;4922625;29;20050;-61
2023/07/06 05:51:39;;;;;;;2.67;1.83;;;18.00;95.00;;;;;;4919130;29;20043;-61
2023/07/06 05:54:05;;;;;;;3.63;1.92;;;18.00;95.10;;;;;;4920116;29;20059;-61
2023/07/06 05:56:32;;;;;;;2.95;1.88;;;18.10;95.30;;;;;;4916571;29;20187;-61
2023/07/06 05:59:01;;;;;;;3.88;1.80;;;18.30;94.70;;;;;;4925836;29;20039;-61
2023/07/06 06:01:29;;;;;;;4.95;1.60;;;18.40;94.60;;;;;;4924959;29;20027;-61
2023/07/06 06:03:55;;;;;;;2.55;1.70;;;18.60;94.00;;;;;;4922758;29;20035;-61
2023/07/06 06:06:22;;;;;;;3.38;1.70;;;18.70;93.60;;;;;;4923019;29;20039;-61
2023/07/06 06:08:49;;;;;;;5.28;1.75;;;18.70;93.50;;;;;;4919662;29;20028;-61
2023/07/06 06:11:15;;;;;;;2.00;1.55;;;18.80;93.70;;;;;;4920413;29;20133;-61
2023/07/06 06:13:43;;;;;;;2.33;1.80;;;18.80;93.70;;;;;;4918349;29;20036;-61
2023/07/06 06:16:12;;;;;;;3.38;1.73;;;18.80;93.10;;;;;;4922385;29;20036;-62
2023/07/06 06:18:39;;;;;;;2.83;1.45;;;18.90;93.30;;;;;;4924306;29;20115;-61
2023/07/06 06:21:06;;;;;;;3.08;1.63;;;18.90;92.50;;;;;;4923896;29;20505;-62
2023/07/06 06:23:32;;;;;;;2.10;1.30;;;18.90;92.00;;;;;;4904371;29;20177;-61
2023/07/06 06:25:59;;;;;;;3.47;1.90;;;19.10;91.70;;;;;;4922490;29;20024;-62
2023/07/06 06:28:25;;;;;;;2.03;1.45;;;19.20;91.50;;;;;;4919263;29;20055;-62
2023/07/06 06:30:51;;;;;;;5.88;1.55;;;19.40;91.10;;;;;;4917793;29;20039;-61
2023/07/06 06:33:20;;;;;;;2.25;1.60;;;19.40;90.80;;;;;;4918581;29;20036;-62
2023/07/06 06:35:46;;;;;;;1.67;1.40;;;19.50;90.70;;;;;;4924498;29;20078;-62
2023/07/06 06:38:14;;;;;;;3.13;1.40;;;19.50;90.50;;;;;;4924333;29;20496;-61
2023/07/06 06:40:40;;;;;;;2.05;1.10;;;19.60;89.60;;;;;;4920540;29;20647;-62
2023/07/06 06:43:06;;;;;;;2.13;1.40;;;19.50;89.40;;;;;;4921279;29;20114;-62
2023/07/06 06:45:32;;;;;;;2.03;1.27;;;19.50;87.80;;;;;;4922650;29;20092;-62
2023/07/06 06:47:58;;;;;;;2.60;1.67;;;19.50;87.80;;;;;;4923092;29;20028;-61
2023/07/06 06:50:26;;;;;;;2.47;1.25;;;19.50;88.30;;;;;;4922900;29;20615;-62
2023/07/06 06:52:51;;;;;;;1.67;1.08;;;19.50;88.30;;;;;;4928008;29;20039;-62
2023/07/06 06:55:17;;;;;;;2.20;1.15;;;19.60;87.80;;;;;;4927968;29;20050;-61
2023/07/06 06:57:43;;;;;;;2.35;1.23;;;19.60;87.70;;;;;;4925366;29;20047;-61
2023/07/06 07:00:10;;;;;;;3.55;1.38;;;19.60;87.80;;;;;;4925435;29;20036;-62
2023/07/06 07:02:39;;;;;;;1.90;1.50;;;19.70;86.30;;;;;;4923879;29;20127;-62
2023/07/06 07:05:05;;;;;;;1.58;1.10;;;19.70;86.10;;;;;;4924241;29;20110;-61
2023/07/06 07:07:31;;;;;;;3.45;1.52;;;19.70;86.70;;;;;;4919687;29;20040;-61
2023/07/06 07:09:57;;;;;;;2.28;1.42;;;19.80;86.80;;;;;;4928427;29;20055;-62
2023/07/06 07:12:25;;;;;;;2.47;1.30;;;19.80;84.20;;;;;;4929127;29;20048;-61
2023/07/06 07:14:50;;;;;;;1.52;1.02;;;19.90;83.90;;;;;;4926843;29;20555;-61
2023/07/06 07:17:16;;;;;;;2.90;1.70;;;19.90;83.70;;;;;;4925688;29;20096;-61
2023/07/06 07:19:42;;;;;;;5.13;1.30;;;19.90;84.10;;;;;;4922359;29;20609;-61
2023/07/06 07:22:08;;;;;;;3.00;1.33;;;20.00;83.00;;;;;;4923418;29;20034;-62
2023/07/06 07:24:36;;;;;;;3.70;1.35;;;20.00;82.90;;;;;;4919099;29;20032;-61
2023/07/06 07:27:02;;;;;;;2.55;1.15;;;20.10;82.00;;;;;;4924925;29;20084;-61
2023/07/06 07:29:28;;;;;;;2.05;1.20;;;20.10;82.60;;;;;;4928165;29;20035;-61
2023/07/06 07:31:54;;;;;;;3.15;1.42;;;20.10;83.80;;;;;;4925528;29;20036;-61
2023/07/06 07:34:20;;;;;;;1.25;1.00;;;20.20;82.20;;;;;;4912103;29;20585;-61
2023/07/06 07:36:47;;;;;;;2.55;1.23;;;20.30;81.80;;;;;;4922579;29;20044;-61
2023/07/06 07:39:14;;;;;;;1.40;1.08;;;20.40;80.50;;;;;;4922718;29;20040;-61
2023/07/06 07:41:42;;;;;;;4.47;1.33;;;20.40;80.40;;;;;;4919203;29;20039;-61
2023/07/06 07:44:09;;;;;;;2.20;1.27;;;20.50;79.60;;;;;;4921111;29;20036;-61
2023/07/06 07:46:35;;;;;;;2.42;1.38;;;20.50;79.40;;;;;;4927278;29;20031;-61
2023/07/06 07:49:01;;;;;;;2.20;1.08;;;20.50;79.50;;;;;;4926754;29;20027;-61
2023/07/06 07:51:28;;;;;;;1.42;1.05;;;20.50;79.00;;;;;;4925550;29;20036;-61
2023/07/06 07:53:55;;;;;;;2.20;1.10;;;20.60;79.80;;;;;;4923309;29;20059;-61
2023/07/06 07:56:23;;;;;;;2.35;1.25;;;20.70;81.00;;;;;;4921819;29;20057;-61
2023/07/06 07:58:49;;;;;;;3.33;1.13;;;20.70;80.10;;;;;;4919813;29;20393;-61
2023/07/06 08:01:24;;;;;;;1.85;1.23;;;20.70;80.00;;;;;;4920232;29;20062;-61
2023/07/06 08:03:52;;;;;;;2.40;1.25;;;20.80;80.00;;;;;;4910553;29;20035;-62
2023/07/06 08:06:19;;;;;;;4.30;1.50;;;20.90;80.50;;;;;;4926686;29;20038;-61
2023/07/06 08:08:45;;;;;;;1.33;1.23;;;21.10;79.40;;;;;;4923952;29;20071;-61
2023/07/06 08:11:14;;;;;;;3.25;1.30;;;21.10;78.90;;;;;;4924208;29;20038;-61
2023/07/06 08:13:40;;;;;;;2.30;1.45;;;21.20;78.60;;;;;;4922255;29;20043;-62
2023/07/06 08:16:06;;;;;;;2.53;1.35;;;21.20;78.40;;;;;;4922562;29;20039;-62
2023/07/06 08:18:32;;;;;;;2.13;1.10;;;21.20;77.80;;;;;;4917840;29;20051;-62
2023/07/06 08:20:59;;;;;;;3.17;1.33;;;21.20;77.40;;;;;;4926946;29;20039;-62
2023/07/06 08:23:27;;;;;;;2.55;1.15;;;21.20;77.80;;;;;;4926547;29;20035;-62
2023/07/06 08:25:53;;;;;;;1.67;1.35;;;21.20;77.60;;;;;;4924056;29;20071;-62
2023/07/06 08:28:24;;;;;;;1.50;1.20;;;21.30;78.20;;;;;;4924151;29;20126;-62
2023/07/06 08:30:52;;;;;;;3.58;1.58;;;21.30;77.20;;;;;;4919991;29;20785;-62
2023/07/06 08:33:20;;;;;;;2.45;1.40;;;21.40;77.30;;;;;;4921296;29;20473;-62
2023/07/06 08:35:47;;;;;;;3.17;1.55;;;21.40;77.40;;;;;;4919012;29;20039;-62
2023/07/06 08:38:13;;;;;;;1.25;1.00;;;21.40;77.30;;;;;;4923964;29;20058;-62
2023/07/06 08:40:41;;;;;;;1.45;1.25;;;21.40;79.40;;;;;;4922196;29;20039;-62
2023/07/06 08:43:15;;;;;;;3.38;1.30;;;21.30;79.70;;;;;;4925131;29;20404;-62
2023/07/06 08:45:44;;;;;;;2.53;1.30;;;21.30;78.90;;;;;;4922624;29;20127;-62
2023/07/06 08:48:16;;;;;;;2.33;1.50;;;21.10;78.20;;;;;;4922999;29;20135;-62
2023/07/06 08:50:52;;;;;;;3.42;1.52;;;21.00;78.30;;;;;;4919048;29;20044;-62
2023/07/06 08:53:21;;;;;;;2.55;1.38;;;20.90;78.50;;;;;;4919167;29;20047;-61
2023/07/06 08:55:51;;;;;;;5.15;1.83;;;20.90;79.30;;;;;;4921596;29;20032;-61
2023/07/06 08:58:27;;;;;;;3.00;1.33;;;21.00;77.40;;;;;;4926562;29;20106;-61
2023/07/06 09:01:06;;;;;;;2.15;1.60;;;21.20;77.50;;;;;;4923850;29;20036;-62
2023/07/06 09:03:40;;;;;;;1.92;1.40;;;21.30;77.40;;;;;;4921667;29;20460;-62
2023/07/06 09:06:12;;;;;;;3.22;1.42;;;21.50;78.20;;;;;;4922748;29;20042;-62
2023/07/06 09:08:41;;;;;;;2.83;1.33;;;21.70;76.20;;;;;;4918485;29;20066;-61
2023/07/06 09:11:08;;;;;;;3.78;1.50;;;21.80;77.40;;;;;;4920262;29;20048;-61
2023/07/06 09:13:46;;;;;;;2.13;1.17;;;21.90;75.60;;;;;;4925277;29;20046;-62
2023/07/06 09:16:15;;;;;;;2.70;1.20;;;22.00;76.00;;;;;;4925844;29;20547;-62
2023/07/06 09:18:42;;;;;;;1.42;1.15;;;22.10;76.70;;;;;;4908650;29;20152;-61
2023/07/06 09:21:08;;;;;;;3.22;1.30;;;22.20;74.70;;;;;;4923458;29;20036;-61
2023/07/06 09:23:34;;;;;;;3.03;1.15;;;22.20;75.70;;;;;;4920380;29;20035;-62
2023/07/06 09:26:06;;;;;;;3.35;1.48;;;22.10;74.10;;;;;;4921453;29;20037;-61
2023/07/06 09:28:32;;;;;;;1.23;1.02;;;22.10;74.80;;;;;;4917651;29;20180;-62
2023/07/06 09:31:15;;;;;;;1.50;1.30;;;22.10;76.60;;;;;;4903051;29;20587;-63
2023/07/06 09:33:43;;;;;;;1.83;1.25;;;22.00;75.80;;;;;;4922891;29;20044;-62
2023/07/06 09:36:19;;;;;;;1.50;1.23;;;22.00;75.60;;;;;;4924568;29;20031;-62
2023/07/06 09:38:45;;;;;;;2.10;1.20;;;22.20;75.10;;;;;;4921047;29;20040;-62
2023/07/06 09:41:22;;;;;;;1.10;1.00;;;22.30;74.50;;;;;;4924110;29;20543;-62
2023/07/06 09:43:57;;;;;;;2.88;1.20;;;22.40;73.20;;;;;;4921982;29;20595;-62
2023/07/06 09:46:28;;;;;;;3.88;1.35;;;22.50;74.20;;;;;;4917655;29;20046;-67
2023/07/06 09:48:54;;;;;;;2.33;1.27;;;22.60;75.20;;;;;;4921290;29;20035;-62
2023/07/06 09:51:36;;;;;;;2.45;1.10;;;22.60;75.30;;;;;;4925833;29;20036;-62
2023/07/06 09:54:17;;;;;;;1.73;1.42;;;22.70;72.90;;;;;;4923490;29;20054;-62
2023/07/06 09:56:43;;;;;;;3.38;1.33;;;22.80;73.90;;;;;;4920961;29;20148;-62
2023/07/06 09:59:11;;;;;;;6.03;1.35;;;22.80;71.10;;;;;;4923774;29;20038;-62
2023/07/06 10:02:01;;;;;;;2.95;1.40;;;22.80;71.00;;;;;;4916937;29;20036;-62
2023/07/06 10:04:53;;;;;;;2.92;1.52;;;22.80;71.60;;;;;;4910905;29;20029;-62
2023/07/06 10:07:53;;;;;;;2.15;1.35;;;22.70;71.50;;;;;;4924090;29;20114;-63
2023/07/06 10:10:33;;;;;;;2.17;1.17;;;22.70;70.50;;;;;;4921496;29;20039;-62
2023/07/06 10:13:21;;;;;;;2.55;1.48;;;22.70;72.20;;;;;;4923817;29;20032;-62
2023/07/06 10:15:55;;;;;;;10.25;6.18;;;22.70;72.60;;;;;;4919682;29;20032;-62
2023/07/06 10:18:25;;;;;;;13.00;8.85;;;22.80;71.70;;;;;;4919242;29;20412;-62
2023/07/06 10:21:01;;;;;;;4.03;3.17;;;22.90;70.40;;;;;;4917930;29;20040;-62
2023/07/06 10:23:53;;;;;;;3.10;1.55;;;22.90;69.20;;;;;;4917492;29;20071;-62
2023/07/06 10:26:32;;;;;;;4.40;1.42;;;23.00;69.20;;;;;;4923688;29;20518;-61
2023/07/06 10:29:10;;;;;;;1.30;1.10;;;23.10;68.60;;;;;;4922934;29;20032;-62
2023/07/06 10:32:17;;;;;;;2.60;1.65;;;23.20;68.30;;;;;;4922734;29;20054;-62
2023/07/06 10:34:43;;;;;;;1.90;1.40;;;23.20;67.20;;;;;;4901723;29;20075;-63
2023/07/06 10:37:14;;;;;;;2.25;1.30;;;23.10;68.40;;;;;;4919859;29;20116;-62
2023/07/06 10:39:45;;;;;;;1.63;1.25;;;23.10;69.00;;;;;;4915661;29;20040;-63
2023/07/06 10:42:31;;;;;;;4.35;1.60;;;23.10;68.80;;;;;;4921752;29;20028;-64
2023/07/06 10:44:58;;;;;;;;;;;23.10;70.30;;;;;;4923829;29;20023;-63
2023/07/06 10:47:36;;;;;;;2.45;1.42;;;23.10;67.50;;;;;;4921004;29;20371;-64
2023/07/06 10:50:07;;;;;;;1.98;1.45;;;23.00;69.10;;;;;;4921684;29;20035;-62
2023/07/06 10:52:41;;;;;;;2.88;1.50;;;23.00;68.20;;;;;;4918405;29;20110;-63
2023/07/06 10:55:34;;;;;;;2.38;1.70;;;23.00;68.60;;;;;;4919362;29;20036;-63
2023/07/06 10:58:30;;;;;;;3.67;1.50;;;23.10;69.90;;;;;;4918758;29;20637;-63
2023/07/06 11:00:58;;;;;;;1.30;1.20;;;23.20;69.80;;;;;;4922590;29;20051;-64
2023/07/06 11:03:31;;;;;;;3.10;1.17;;;23.40;67.50;;;;;;4923924;29;20114;-62
2023/07/06 11:06:05;;;;;;;2.35;1.45;;;23.60;70.10;;;;;;4918714;29;20154;-64
2023/07/06 11:09:02;;;;;;;5.50;1.50;;;23.70;67.20;;;;;;4922240;29;20031;-63
2023/07/06 11:11:28;;;;;;;1.42;1.30;;;23.80;65.20;;;;;;4920985;29;20448;-63
2023/07/06 11:13:55;;;;;;;2.20;1.20;;;23.70;65.10;;;;;;4918434;29;20036;-63
2023/07/06 11:16:29;;;;;;;1.20;0.90;;;23.70;64.40;;;;;;4918327;29;20040;-63
2023/07/06 11:18:58;;;;;;;2.75;1.30;;;23.60;64.90;;;;;;4924775;29;20116;-62
2023/07/06 11:21:47;;;;;;;2.55;1.45;;;23.50;67.20;;;;;;4923523;29;20563;-63
2023/07/06 11:24:16;;;;;;;2.60;1.20;;;23.40;70.40;;;;;;4921445;29;20154;-63
2023/07/06 11:27:01;;;;;;;2.30;1.63;;;23.20;69.20;;;;;;4907082;29;20131;-63
2023/07/06 11:29:29;;;;;;;2.70;1.75;;;23.10;68.30;;;;;;4922911;29;20027;-63
2023/07/06 11:32:09;;;;;;;3.17;1.40;;;23.00;68.80;;;;;;4927781;29;20094;-63
2023/07/06 11:35:02;;;;;;;4.30;1.60;;;23.20;69.90;;;;;;4926670;29;20039;-63
2023/07/06 11:37:40;;;;;;;1.50;1.30;;;23.40;67.70;;;;;;4928029;29;20047;-63
2023/07/06 11:40:32;;;;;;;3.58;2.50;;;23.50;65.70;;;;;;4928175;29;20046;-63
2023/07/06 11:43:27;;;;;;;3.08;2.03;;;23.40;67.70;;;;;;4924234;29;20036;-63
2023/07/06 11:46:16;;;;;;;5.53;3.08;;;23.20;68.30;;;;;;4923755;29;20092;-63
2023/07/06 11:49:08;;;;;;;2.67;1.33;;;23.20;68.30;;;;;;4919488;29;20044;-63
2023/07/06 11:51:34;;;;;;;3.25;2.53;;;23.30;65.60;;;;;;4917597;29;20147;-63
2023/07/06 11:54:01;;;;;;;4.00;2.65;;;23.20;66.40;;;;;;4927855;29;20091;-62
2023/07/06 11:56:50;;;;;;;5.32;3.40;;;23.30;66.20;;;;;;4924165;29;20129;-63
2023/07/06 11:59:37;;;;;;;2.05;1.70;;;23.30;66.70;;;;;;4924316;29;20134;-63
2023/07/06 12:02:18;;;;;;;3.58;2.67;;;23.40;63.50;;;;;;4922244;29;20036;-63
2023/07/06 12:04:49;;;;;;;2.95;1.80;;;23.40;64.20;;;;;;4920546;29;20497;-63
2023/07/06 12:07:22;;;;;;;3.17;2.20;;;23.60;62.70;;;;;;4921419;29;20071;-63
2023/07/06 12:09:48;;;;;;;8.55;5.32;;;23.70;64.00;;;;;;4925777;29;20074;-63
2023/07/06 12:12:17;;;;;;;3.72;2.05;;;23.80;64.90;;;;;;4927924;29;20126;-63
2023/07/06 12:14:44;;;;;;;5.50;3.25;;;23.90;63.90;;;;;;4924589;29;20114;-63
2023/07/06 12:17:12;;;;;;;3.45;1.27;;;23.90;61.30;;;;;;4925332;29;20119;-63
2023/07/06 12:19:41;;;;;;;4.25;2.33;;;24.00;60.80;;;;;;4921389;29;20063;-63
2023/07/06 12:22:15;;;;;;;2.47;1.60;;;24.00;59.80;;;;;;4922401;29;20062;-63
2023/07/06 12:24:42;;;;;;;3.33;1.75;;;24.10;60.20;;;;;;4918879;29;20054;-63
2023/07/06 12:27:16;;;;;;;2.97;1.95;;;24.20;59.50;;;;;;4921102;29;20460;-63
2023/07/06 12:29:45;;;;;;;1.27;1.00;;;24.20;61.20;;;;;;4926352;29;20035;-63
2023/07/06 12:32:21;;;;;;;1.85;1.17;;;24.30;57.40;;;;;;4925576;29;20036;-63
2023/07/06 12:34:49;;;;;;;;;;;24.40;57.00;;;;;;4923718;29;20126;-63
2023/07/06 12:37:17;;;;;;;1.50;1.40;;;24.50;58.80;;;;;;4925929;29;19915;-64
2023/07/06 12:39:46;;;;;;;3.15;2.05;;;24.70;59.80;;;;;;4919883;29;20075;-63
2023/07/06 12:42:13;;;;;;;2.30;1.10;;;24.80;58.40;;;;;;4920388;29;20494;-63
2023/07/06 12:44:42;;;;;;;3.10;1.60;;;24.80;56.70;;;;;;4916585;29;20039;-63
2023/07/06 12:47:40;;;;;;;1.92;1.67;;;24.70;57.20;;;;;;4927129;29;20044;-63
2023/07/06 12:50:15;;;;;;;2.63;1.15;;;24.70;58.30;;;;;;4917858;29;20046;-63
2023/07/06 12:52:42;;;;;;;2.80;2.08;;;24.70;58.60;;;;;;4918951;29;20488;-63
2023/07/06 12:55:16;;;;;;;2.08;1.40;;;24.70;59.30;;;;;;4923444;29;20767;-63
2023/07/06 12:57:43;;;;;;;3.35;2.08;;;24.70;59.30;;;;;;4921684;29;20047;-63
2023/07/06 13:00:17;;;;;;;3.35;2.03;;;24.60;59.70;;;;;;4921256;29;20075;-63
2023/07/06 13:02:43;;;;;;;2.40;1.50;;;24.60;59.80;;;;;;4917260;29;20028;-63
2023/07/06 13:05:25;;;;;;;2.38;1.63;;;24.70;60.10;;;;;;4926601;29;20780;-64
2023/07/06 13:07:52;;;;;;;4.00;1.67;;;24.70;60.20;;;;;;4922845;29;20067;-63
2023/07/06 13:10:28;;;;;;;3.40;1.20;;;24.70;59.60;;;;;;4923843;29;20047;-63